Time;durP1;ratioP1;P1;durP2;ratioP2;P2;SDS_P1;SDS_P2;PMS_P1;PMS_P2;Temp;Humidity;BMP_temperature;BMP_pressure;BME280_temperature;BME280_humidity;BME280_pressure;Samples;Min_cycle;Max_cycle;Signal;HPM_P1;HPM_P2
2022/08/30 00:01:05;;;;;;;;;3.00;3.00;;;;;20.75;44.99;101570.38;5074187;27;50466;-68
2022/08/30 00:03:44;;;;;;;;;4.75;4.75;;;;;20.67;45.36;101555.31;5087045;27;49870;-69
2022/08/30 00:06:11;;;;;;;;;4.50;4.50;;;;;20.62;45.19;101536.66;5092625;27;49770;-69
2022/08/30 00:08:37;;;;;;;;;3.75;3.25;;;;;20.36;45.42;101480.81;5092994;27;49774;-68
2022/08/30 00:11:04;;;;;;;;;5.75;5.75;;;;;20.37;45.20;101485.28;5092335;27;49984;-70
2022/08/30 00:13:30;;;;;;;;;6.00;5.00;;;;;20.74;44.90;101562.34;5092622;27;49887;-70
2022/08/30 00:15:56;;;;;;;;;5.00;3.00;;;;;20.72;45.24;101566.81;5092382;27;49713;-70
2022/08/30 00:18:22;;;;;;;;;4.00;4.00;;;;;20.83;45.01;101583.63;5092647;27;49863;-71
2022/08/30 00:20:49;;;;;;;;;4.75;4.75;;;;;20.83;45.22;101592.50;5092261;27;50720;-70
2022/08/30 00:23:16;;;;;;;;;2.50;2.50;;;;;20.70;45.50;101564.16;5092416;27;49788;-69
2022/08/30 00:25:43;;;;;;;;;3.75;3.75;;;;;20.77;45.48;101571.22;5092335;27;49867;-71
2022/08/30 00:28:09;;;;;;;;;4.25;4.25;;;;;20.70;45.21;101556.16;5092530;27;49731;-69
2022/08/30 00:30:35;;;;;;;;;3.00;3.00;;;;;20.61;45.53;101563.34;5092389;27;49569;-68
2022/08/30 00:33:01;;;;;;;;;5.75;2.25;;;;;20.71;45.17;101562.38;5081341;27;50023;-72
2022/08/30 00:35:26;;;;;;;;;3.50;3.50;;;;;20.73;45.65;101565.91;5072427;27;49660;-72
2022/08/30 00:37:52;;;;;;;;;5.75;3.50;;;;;20.66;45.62;101569.56;5072982;27;49820;-72
2022/08/30 00:40:19;;;;;;;;;1.00;1.00;;;;;20.60;45.60;101573.16;5072621;27;50809;-73
2022/08/30 00:42:46;;;;;;;;;2.25;2.25;;;;;20.58;46.07;101569.59;5072650;27;49866;-70
2022/08/30 00:45:20;;;;;;;;;7.00;5.00;;;;;20.51;46.01;101554.53;5072587;27;49904;-68
2022/08/30 00:47:46;;;;;;;;;6.75;3.75;;;;;20.54;46.25;101557.19;5072617;27;49991;-68
2022/08/30 00:50:14;;;;;;;;;5.00;5.00;;;;;20.53;46.09;101552.75;5071976;27;50924;-69
2022/08/30 00:52:43;;;;;;;;;2.75;2.75;;;;;20.31;46.45;101522.66;5072033;27;49726;-69
2022/08/30 00:55:12;;;;;;;;;4.25;3.50;;;;;20.48;46.41;101566.13;5072305;27;49771;-68
2022/08/30 00:57:38;;;;;;;;;3.00;3.00;;;;;20.52;46.45;101562.53;5072533;27;50044;-69
2022/08/30 01:00:05;;;;;;;;;4.00;4.00;;;;;20.46;46.48;101559.00;5071977;27;50934;-69
2022/08/30 01:02:32;;;;;;;;;3.50;3.50;;;;;20.55;46.45;101570.50;5072278;27;49879;-69
2022/08/30 01:05:00;;;;;;;;;1.00;1.00;;;;;20.50;46.39;101569.66;5071923;27;49849;-68
2022/08/30 01:07:25;;;;;;;;;2.50;2.00;;;;;20.55;46.38;101569.59;5072250;27;49868;-68
2022/08/30 01:09:50;;;;;;;;;5.25;4.00;;;;;20.49;46.62;101556.34;5070514;27;55380;-68
2022/08/30 01:12:16;;;;;;;;;5.00;3.50;;;;;20.54;46.58;101573.19;5069870;27;50224;-69
2022/08/30 01:14:41;;;;;;;;;4.00;4.00;;;;;20.51;46.37;101558.09;5072242;27;49837;-68
2022/08/30 01:17:08;;;;;;;;;4.50;3.50;;;;;20.57;46.37;101573.19;5072334;27;50158;-68
2022/08/30 01:19:54;;;;;;;;;7.50;5.00;;;;;20.58;46.44;101577.63;5071506;27;49704;-68
2022/08/30 01:22:31;;;;;;;;;4.00;4.00;;;;;20.54;46.59;101573.19;5072028;27;49585;-68
2022/08/30 01:24:59;;;;;;;;;3.00;3.00;;;;;20.41;46.43;101580.34;5085762;27;49986;-68
2022/08/30 01:27:27;;;;;;;;;4.25;3.25;;;;;20.47;46.46;101585.69;5107496;27;50039;-69
2022/08/30 01:29:53;;;;;;;;;2.75;2.00;;;;;20.37;46.69;101570.63;5091506;27;50417;-69
2022/08/30 01:32:21;;;;;;;;;5.00;2.00;;;;;19.94;46.35;101503.34;5090086;27;49700;-69
2022/08/30 01:34:47;;;;;;;;;6.00;4.00;;;;;20.40;46.76;101583.94;5105373;27;49695;-69
2022/08/30 01:37:20;;;;;;;;;3.50;3.50;;;;;20.26;46.39;101569.78;5107010;27;49834;-70
2022/08/30 01:39:46;;;;;;;;;3.25;3.00;;;;;20.44;46.46;101591.03;5106421;27;49544;-69
2022/08/30 01:42:13;;;;;;;;;5.25;5.25;;;;;20.40;46.44;101575.91;5106557;27;49278;-69
2022/08/30 01:44:39;;;;;;;;;5.00;3.25;;;;;20.07;46.58;101512.13;5107209;27;49452;-69
2022/08/30 01:47:04;;;;;;;;;5.25;5.25;;;;;20.49;46.29;101591.91;5100256;27;49599;-70
2022/08/30 01:49:30;;;;;;;;;3.75;3.25;;;;;20.29;46.53;101537.78;5071178;27;49911;-68
2022/08/30 01:51:56;;;;;;;;;3.50;3.50;;;;;20.52;46.49;101594.53;5071551;27;49733;-68
2022/08/30 01:54:21;;;;;;;;;5.00;4.00;;;;;20.35;46.44;101575.06;5071629;27;49630;-68
2022/08/30 01:56:47;;;;;;;;;3.50;3.50;;;;;20.45;46.64;101589.25;5071667;27;49878;-69
2022/08/30 01:59:13;;;;;;;;;6.00;5.00;;;;;20.25;46.36;101549.34;5069662;27;51563;-68
2022/08/30 02:01:38;;;;;;;;;4.00;4.00;;;;;20.44;46.87;101585.69;5075455;27;49861;-70
2022/08/30 02:04:06;;;;;;;;;5.25;4.25;;;;;20.42;46.43;101575.91;5086492;27;49613;-69
2022/08/30 02:06:32;;;;;;;;;6.25;5.25;;;;;20.53;46.56;101584.75;5086171;27;49851;-69
2022/08/30 02:08:58;;;;;;;;;5.75;4.50;;;;;20.47;46.66;101585.69;5087366;27;50054;-69
2022/08/30 02:11:24;;;;;;;;;8.75;5.50;;;;;20.50;46.22;101596.34;5087389;27;49388;-70
2022/08/30 02:13:50;;;;;;;;;2.75;2.75;;;;;20.64;46.18;101620.22;5086778;27;49569;-69
2022/08/30 02:16:19;;;;;;;;;3.50;3.50;;;;;20.27;46.00;101553.81;5089677;27;49493;-70
2022/08/30 02:18:44;;;;;;;;;7.00;4.00;;;;;20.62;46.92;101606.03;5088224;27;50284;-77
2022/08/30 02:21:11;;;;;;;;;5.00;3.75;;;;;20.69;47.16;101602.41;5086797;27;49772;-75
2022/08/30 02:23:36;;;;;;;;;6.00;3.00;;;;;20.66;47.17;101601.56;5087980;27;49321;-69
2022/08/30 02:26:03;;;;;;;;;8.25;6.75;;;;;20.68;50.57;101603.31;5085778;27;51499;-69
2022/08/30 02:28:28;;;;;;;;;11.00;8.25;;;;;20.27;64.03;101583.13;5084642;27;50962;-69
2022/08/30 02:30:54;;;;;;;;;11.50;8.25;;;;;20.07;69.07;101616.09;5086820;27;49549;-69
2022/08/30 02:33:19;;;;;;;;;7.00;7.00;;;;;19.87;71.65;101621.50;5086536;27;49249;-70
2022/08/30 02:35:45;;;;;;;;;10.25;10.25;;;;;19.55;73.38;101595.84;5086583;27;49842;-77
2022/08/30 02:38:11;;;;;;;;;11.25;7.00;;;;;19.10;74.37;101540.91;5084822;27;51978;-78
2022/08/30 02:40:37;;;;;;;;;7.75;6.25;;;;;19.11;74.74;101551.59;5085966;27;49551;-80
2022/08/30 02:43:02;;;;;;;;;6.75;6.75;;;;;19.12;75.55;101573.75;5085549;27;49403;-77
2022/08/30 02:45:28;;;;;;;;;5.00;5.00;;;;;18.95;78.15;101544.50;5086593;27;49608;-78
2022/08/30 02:47:55;;;;;;;;;11.75;8.00;;;;;19.14;79.36;101571.97;5086029;27;49457;-69
2022/08/30 02:50:21;;;;;;;;;9.50;7.75;;;;;19.32;81.43;101609.22;5099737;27;49438;-71
2022/08/30 02:52:46;;;;;;;;;10.75;9.00;;;;;19.24;82.37;101597.69;5106464;27;49308;-70
2022/08/30 02:55:12;;;;;;;;;8.00;5.50;;;;;19.27;81.68;101600.34;5105371;27;49434;-71
2022/08/30 02:57:37;;;;;;;;;11.00;9.25;;;;;19.12;81.05;101587.94;5104924;27;52807;-71
2022/08/30 03:00:08;;;;;;;;;8.25;7.75;;;;;19.29;82.58;101618.97;5105238;27;49384;-71
2022/08/30 03:02:34;;;;;;;;;9.50;8.50;;;;;19.26;83.51;101611.00;5106196;27;49738;-70
2022/08/30 03:04:59;;;;;;;;;8.00;7.00;;;;;19.20;82.34;101603.88;5105764;27;49382;-69
2022/08/30 03:07:24;;;;;;;;;12.75;8.75;;;;;19.20;83.30;101613.66;5105760;27;49496;-71
2022/08/30 03:09:50;;;;;;;;;9.00;8.00;;;;;19.14;83.01;101609.25;5105818;27;61664;-69
2022/08/30 03:12:15;;;;;;;;;4.50;4.50;;;;;19.02;84.00;101594.19;5105901;27;49665;-70
2022/08/30 03:14:41;;;;;;;;;8.50;8.00;;;;;19.07;84.61;101599.47;5104856;27;49399;-69
2022/08/30 03:17:07;;;;;;;;;10.00;10.00;;;;;18.87;84.61;101549.81;5105266;27;51137;-69
2022/08/30 03:19:35;;;;;;;;;11.50;9.25;;;;;19.26;84.64;101603.88;5105632;27;49459;-69
2022/08/30 03:22:04;;;;;;;;;8.25;7.00;;;;;19.17;83.44;101583.50;5105453;27;49284;-69
2022/08/30 03:24:30;;;;;;;;;9.25;8.00;;;;;19.08;83.82;101570.19;5105460;27;49983;-69
2022/08/30 03:26:55;;;;;;;;;10.25;9.75;;;;;19.17;83.44;101588.81;5104333;27;50290;-69
2022/08/30 03:29:21;;;;;;;;;9.75;8.50;;;;;19.18;84.20;101589.69;5105734;27;49282;-69
2022/08/30 03:31:47;;;;;;;;;10.00;8.50;;;;;19.25;85.17;101601.25;5104315;27;49316;-69
2022/08/30 03:34:13;;;;;;;;;10.75;9.00;;;;;19.19;85.02;101587.94;5092549;27;49678;-69
2022/08/30 03:36:38;;;;;;;;;9.00;7.50;;;;;18.91;83.76;101552.47;5096317;27;49789;-69
2022/08/30 03:39:06;;;;;;;;;6.25;5.75;;;;;18.93;80.95;101564.03;5101882;27;49712;-69
2022/08/30 03:41:31;;;;;;;;;6.00;6.00;;;;;18.83;79.35;101555.16;5102806;27;49651;-69
2022/08/30 03:43:58;;;;;;;;;10.00;6.00;;;;;18.74;78.58;101553.38;5100786;27;49815;-69
2022/08/30 03:46:23;;;;;;;;;9.00;9.00;;;;;18.63;78.33;101549.81;5109487;27;50471;-68
2022/08/30 03:48:48;;;;;;;;;6.25;6.25;;;;;18.70;78.61;101548.06;5095938;27;49814;-69
2022/08/30 03:51:14;;;;;;;;;9.50;7.50;;;;;18.75;78.96;101554.28;5101580;27;49863;-69
2022/08/30 03:53:39;;;;;;;;;9.75;8.50;;;;;18.60;78.65;101528.50;5106880;27;49653;-69
2022/08/30 03:56:04;;;;;;;;;14.00;6.00;;;;;18.64;74.35;101535.63;5108589;27;49654;-69
2022/08/30 03:58:30;;;;;;;;;7.75;6.75;;;;;18.34;71.83;101503.72;5109414;27;49510;-69
2022/08/30 04:00:55;;;;;;;;;8.00;8.00;;;;;18.37;72.38;101506.38;5108552;27;49644;-69
2022/08/30 04:03:24;;;;;;;;;7.50;7.00;;;;;18.22;71.56;101488.63;5109326;27;50030;-69
2022/08/30 04:05:54;;;;;;;;;11.50;10.00;;;;;18.34;75.46;101509.03;5102821;27;49977;-69
2022/08/30 04:08:19;;;;;;;;;8.50;7.00;;;;;18.41;71.39;101529.41;5079475;27;49805;-68
2022/08/30 04:10:46;;;;;;;;;5.25;5.25;;;;;18.36;71.47;101529.41;5072278;27;49976;-80
2022/08/30 04:13:12;;;;;;;;;6.50;6.50;;;;;18.25;70.32;101499.28;5071998;27;50000;-77
2022/08/30 04:15:38;;;;;;;;;9.00;7.00;;;;;18.13;71.54;101486.84;5071578;27;51962;-69
2022/08/30 04:18:03;;;;;;;;;8.00;7.50;;;;;18.38;72.43;101518.78;5073018;27;49875;-69
2022/08/30 04:20:28;;;;;;;;;8.75;8.25;;;;;18.42;72.51;101504.59;5072864;27;49609;-70
2022/08/30 04:22:53;;;;;;;;;1.25;1.25;;;;;18.38;71.28;101501.03;5074936;27;50181;-69
2022/08/30 04:25:19;;;;;;;;;9.00;8.75;;;;;18.28;68.95;101484.22;5075297;27;63353;-69
2022/08/30 04:27:45;;;;;;;;;6.75;5.75;;;;;18.38;71.59;101503.72;5074510;27;50110;-69
2022/08/30 04:30:11;;;;;;;;;6.75;5.75;;;;;18.48;69.30;101517.88;5087427;27;49278;-69
2022/08/30 04:32:37;;;;;;;;;8.00;8.00;;;;;18.57;73.37;101528.53;5088301;27;49368;-69
2022/08/30 04:35:04;;;;;;;;;7.25;6.25;;;;;18.58;72.71;101531.19;5103902;27;50241;-70
2022/08/30 04:37:29;;;;;;;;;9.25;9.00;;;;;18.60;74.23;101536.50;5106797;27;49465;-70
2022/08/30 04:40:01;;;;;;;;;6.00;6.00;;;;;18.45;75.94;101505.50;5108017;27;49304;-70
2022/08/30 04:42:30;;;;;;;;;9.75;7.50;;;;;18.54;75.21;101534.75;5108367;27;49620;-70
2022/08/30 04:44:55;;;;;;;;;9.25;8.25;;;;;18.47;76.24;101526.75;5107611;27;50117;-70
2022/08/30 04:47:21;;;;;;;;;8.25;6.50;;;;;18.20;74.48;101471.78;5107493;27;49221;-75
2022/08/30 04:49:46;;;;;;;;;15.00;8.25;;;;;18.20;71.30;101475.34;5107078;27;49564;-70
2022/08/30 04:52:11;;;;;;;;;5.00;5.00;;;;;18.38;72.23;101513.47;5104483;27;50873;-70
2022/08/30 04:54:37;;;;;;;;;7.25;6.75;;;;;18.03;70.83;101447.84;5092086;27;50034;-70
2022/08/30 04:57:04;;;;;;;;;11.50;8.75;;;;;18.41;72.82;101502.81;5107448;27;49919;-69
2022/08/30 04:59:30;;;;;;;;;7.25;7.00;;;;;18.36;73.12;101499.28;5091999;27;49941;-69
2022/08/30 05:01:55;;;;;;;;;10.50;7.00;;;;;18.41;74.61;101502.81;5092242;27;50073;-70
2022/08/30 05:04:20;;;;;;;;;9.50;9.25;;;;;18.43;75.42;101512.59;5091465;27;49812;-69
2022/08/30 05:06:46;;;;;;;;;8.75;8.25;;;;;18.45;75.47;101518.78;5091831;27;49758;-70
2022/08/30 05:09:11;;;;;;;;;8.75;7.00;;;;;18.47;74.96;101529.41;5091057;27;50159;-70
2022/08/30 05:11:37;;;;;;;;;8.75;7.75;;;;;18.36;75.96;101516.13;5092015;27;49845;-69
2022/08/30 05:14:03;;;;;;;;;9.50;7.75;;;;;18.33;76.14;101516.09;5091468;27;50883;-71
2022/08/30 05:16:28;;;;;;;;;7.00;7.00;;;;;18.41;76.56;101535.59;5091808;27;49708;-69
2022/08/30 05:18:54;;;;;;;;;13.50;9.25;;;;;18.43;76.24;101544.50;5091407;27;50220;-70
2022/08/30 05:21:22;;;;;;;;;7.50;7.25;;;;;18.33;76.43;101528.50;5091827;27;49974;-69
2022/08/30 05:23:49;;;;;;;;;6.00;6.00;;;;;18.37;76.17;101547.13;5091350;27;50692;-68
2022/08/30 05:26:18;;;;;;;;;9.00;8.50;;;;;18.34;77.00;101540.94;5100812;27;49913;-70
2022/08/30 05:28:44;;;;;;;;;7.00;7.00;;;;;18.31;76.67;101539.13;5107122;27;49276;-75
2022/08/30 05:31:18;;;;;;;;;11.00;8.75;;;;;18.40;76.64;101556.88;5106596;27;49697;-71
2022/08/30 05:33:44;;;;;;;;;8.00;4.25;;;;;18.35;71.75;101545.34;5106522;27;50826;-70
2022/08/30 05:36:12;;;;;;;;;6.00;5.50;;;;;18.41;69.62;101559.53;5107151;27;49604;-69
2022/08/30 05:38:38;;;;;;;;;9.50;9.00;;;;;18.32;71.85;101538.25;5097567;27;49382;-69
2022/08/30 05:41:04;;;;;;;;;11.75;9.25;;;;;18.47;72.89;101550.69;5088597;27;49490;-72
2022/08/30 05:43:30;;;;;;;;;10.75;10.50;;;;;18.44;73.13;101546.25;5076805;27;49901;-73
2022/08/30 05:46:05;;;;;;;;;12.25;12.25;;;;;18.44;71.83;101548.03;5096108;27;49695;-71
2022/08/30 05:48:32;;;;;;;;;13.00;9.50;;;;;18.56;72.42;101566.66;5088843;27;49426;-72
2022/08/30 05:51:10;;;;;;;;;7.25;6.25;;;;;18.32;69.43;101540.91;5080326;27;49886;-73
2022/08/30 05:53:36;;;;;;;;;6.25;5.75;;;;;18.51;71.74;101558.66;5106680;27;49835;-73
2022/08/30 05:56:03;;;;;;;;;9.50;7.00;;;;;18.62;70.25;101563.09;5113994;27;49775;-72
2022/08/30 05:58:29;;;;;;;;;7.25;6.75;;;;;18.52;70.06;101556.88;5105112;27;49823;-72
2022/08/30 06:00:54;;;;;;;;;10.00;7.75;;;;;18.46;68.55;101557.78;5101822;27;49624;-71
2022/08/30 06:03:20;;;;;;;;;11.25;9.00;;;;;18.41;68.54;101540.91;5087833;27;49945;-72
2022/08/30 06:05:48;;;;;;;;;7.75;7.00;;;;;18.43;64.45;101546.22;5081512;27;49856;-72
2022/08/30 06:08:13;;;;;;;;;7.00;7.00;;;;;18.51;64.62;101561.31;5094174;27;49716;-73
2022/08/30 06:10:39;;;;;;;;;12.00;7.00;;;;;18.47;63.91;101569.28;5096219;27;49925;-72
2022/08/30 06:13:04;;;;;;;;;13.25;9.75;;;;;18.53;62.57;101574.63;5108145;27;52289;-72
2022/08/30 06:15:30;;;;;;;;;8.50;6.50;;;;;18.45;63.88;101556.00;5112358;27;49392;-78
2022/08/30 06:17:55;;;;;;;;;5.75;5.75;;;;;18.40;62.37;101560.41;5107343;27;49856;-72
2022/08/30 06:20:21;;;;;;;;;7.00;6.50;;;;;18.49;63.06;101583.47;5112467;27;49672;-72
2022/08/30 06:22:46;;;;;;;;;5.00;5.00;;;;;18.48;63.53;101563.97;5094322;27;49687;-73
2022/08/30 06:25:13;;;;;;;;;11.25;7.25;;;;;18.68;61.84;101587.06;5094092;27;49494;-73
2022/08/30 06:27:38;;;;;;;;;7.00;5.50;;;;;18.30;62.88;101510.78;5096114;27;49239;-73
2022/08/30 06:30:07;;;;;;;;;7.50;6.25;;;;;18.47;62.41;101532.97;5091329;27;49907;-73
2022/08/30 06:32:33;;;;;;;;;9.00;8.00;;;;;18.68;62.61;101569.34;5092308;27;49739;-72
2022/08/30 06:34:59;;;;;;;;;7.50;7.50;;;;;18.48;62.13;101534.72;5099757;27;50586;-72
2022/08/30 06:37:25;;;;;;;;;12.25;8.00;;;;;18.54;61.49;101555.13;5096446;27;49585;-72
2022/08/30 06:39:50;;;;;;;;;6.50;6.50;;;;;18.60;61.87;101561.31;5094841;27;49857;-72
2022/08/30 06:42:16;;;;;;;;;6.00;6.00;;;;;18.31;60.73;101502.81;5091785;27;50782;-75
2022/08/30 06:44:41;;;;;;;;;7.00;6.75;;;;;18.49;60.91;101530.28;5100988;27;49314;-72
2022/08/30 06:47:06;;;;;;;;;9.25;7.50;;;;;18.65;61.77;101548.06;5086338;27;49636;-72
2022/08/30 06:49:32;;;;;;;;;8.75;6.25;;;;;18.76;62.36;101538.31;5089923;27;49475;-72
2022/08/30 06:51:57;;;;;;;;;11.00;9.75;;;;;18.97;62.77;101537.41;5097567;27;51495;-72
2022/08/30 06:54:23;;;;;;;;;11.75;7.50;;;;;19.06;61.69;101544.47;5087148;27;49234;-72
2022/08/30 06:56:48;;;;;;;;;7.25;7.25;;;;;19.30;61.03;101579.06;5087233;27;49896;-69
2022/08/30 06:59:13;;;;;;;;;11.50;9.00;;;;;18.99;60.59;101518.75;5087376;27;49305;-72
2022/08/30 07:01:39;;;;;;;;;10.75;8.00;;;;;19.27;59.80;101567.50;5088769;27;50118;-72
2022/08/30 07:04:04;;;;;;;;;12.00;10.00;;;;;19.24;61.56;101541.78;5098327;27;49473;-72
2022/08/30 07:06:31;;;;;;;;;8.25;5.50;;;;;19.51;61.70;101566.56;5074310;27;49723;-73
2022/08/30 07:08:56;;;;;;;;;8.75;8.25;;;;;19.65;60.11;101572.75;5078455;27;50189;-74
2022/08/30 07:11:35;;;;;;;;;6.00;4.50;;;;;19.53;58.39;101559.47;5076943;27;49890;-77
2022/08/30 07:14:01;;;;;;;;;9.25;8.50;;;;;19.40;57.98;101547.97;5095356;27;49495;-77
2022/08/30 07:16:27;;;;;;;;;8.25;8.25;;;;;19.57;57.78;101577.22;5109371;27;49170;-77
2022/08/30 07:18:54;;;;;;;;;12.00;10.00;;;;;19.71;57.97;101592.28;5109347;27;49430;-75
2022/08/30 07:21:23;;;;;;;;;10.00;6.50;;;;;19.76;58.48;101596.69;5114900;27;50343;-77
2022/08/30 07:23:49;;;;;;;;;9.25;9.25;;;;;19.85;57.10;101591.31;5091238;27;49480;-74
2022/08/30 07:26:18;;;;;;;;;6.00;6.00;;;;;19.87;57.68;101571.75;5091667;27;49413;-74
2022/08/30 07:28:45;;;;;;;;;7.75;7.75;;;;;20.00;57.96;101577.94;5093324;27;49528;-74
2022/08/30 07:31:12;;;;;;;;;6.25;5.75;;;;;20.11;56.88;101583.22;5088279;27;51464;-74
2022/08/30 07:33:39;;;;;;;;;7.00;7.00;;;;;20.31;56.92;101586.66;5089715;27;49600;-71
2022/08/30 07:36:05;;;;;;;;;7.75;7.75;;;;;20.46;55.30;101597.25;5101842;27;49477;-71
2022/08/30 07:38:30;;;;;;;;;10.00;6.00;;;;;20.35;56.18;101575.06;5104472;27;49434;-71
2022/08/30 07:40:59;;;;;;;;;11.25;10.00;;;;;20.59;56.12;101590.06;5108840;27;52026;-72
2022/08/30 07:43:27;;;;;;;;;7.00;6.00;;;;;20.48;54.91;101573.25;5091079;27;49568;-72
2022/08/30 07:45:52;;;;;;;;;10.75;7.00;;;;;20.51;55.41;101571.44;5105160;27;49436;-72
2022/08/30 07:48:17;;;;;;;;;13.50;10.50;;;;;20.33;54.83;101526.19;5098982;27;49567;-69
2022/08/30 07:50:44;;;;;;;;;9.50;8.75;;;;;20.88;53.67;101591.59;5093048;27;50114;-70
2022/08/30 07:53:11;;;;;;;;;10.50;7.75;;;;;20.93;54.28;101571.97;5092217;27;49502;-72
2022/08/30 07:55:36;;;;;;;;;7.50;7.50;;;;;21.25;54.16;101600.16;5094529;27;49801;-70
2022/08/30 07:58:02;;;;;;;;;12.50;10.75;;;;;21.27;53.62;101596.59;5107554;27;49306;-76
2022/08/30 08:00:27;;;;;;;;;7.50;7.50;;;;;21.44;53.59;101585.75;5103510;27;50684;-68
2022/08/30 08:02:53;;;;;;;;;9.00;7.00;;;;;21.62;52.47;101600.69;5104250;27;49380;-70
2022/08/30 08:05:18;;;;;;;;;7.75;7.75;;;;;21.49;52.16;101570.53;5085258;27;49722;-70
2022/08/30 08:07:44;;;;;;;;;8.50;7.75;;;;;21.73;52.40;101584.53;5088715;27;49767;-67
2022/08/30 08:10:09;;;;;;;;;4.75;4.75;;;;;21.93;51.82;101599.41;5079247;27;49587;-68
2022/08/30 08:12:35;;;;;;;;;7.50;7.50;;;;;21.99;51.89;101571.69;5079386;27;49683;-68
2022/08/30 08:15:01;;;;;;;;;5.00;5.00;;;;;22.15;51.79;101592.00;5073905;27;50055;-68
2022/08/30 08:17:26;;;;;;;;;11.75;9.50;;;;;22.24;51.66;101601.72;5073083;27;50142;-67
2022/08/30 08:19:52;;;;;;;;;9.75;8.00;;;;;22.23;49.77;101605.28;5083936;27;49809;-67
2022/08/30 08:22:17;;;;;;;;;10.25;9.25;;;;;21.10;50.89;101438.34;5083626;27;49707;-67
2022/08/30 08:24:42;;;;;;;;;10.25;10.25;;;;;22.08;51.18;101584.97;5089777;27;49796;-68
2022/08/30 08:27:08;;;;;;;;;8.50;7.50;;;;;22.31;50.54;101605.19;5104411;27;49804;-67
2022/08/30 08:29:33;;;;;;;;;5.50;4.50;;;;;22.21;50.74;101583.91;5083814;27;49922;-68
2022/08/30 08:31:59;;;;;;;;;7.25;6.00;;;;;22.33;51.61;101596.22;5084944;27;49835;-67
2022/08/30 08:34:24;;;;;;;;;8.75;7.75;;;;;22.39;51.26;101588.13;5083542;27;49816;-67
2022/08/30 08:36:50;;;;;;;;;10.25;6.25;;;;;22.51;50.14;101613.81;5077904;27;50018;-67
2022/08/30 08:39:16;;;;;;;;;10.00;7.50;;;;;22.41;50.01;101613.06;5082033;27;50976;-68
2022/08/30 08:41:50;;;;;;;;;7.00;6.25;;;;;22.38;50.41;101620.22;5081189;27;49777;-67
2022/08/30 08:44:34;;;;;;;;;12.50;9.25;;;;;22.39;50.55;101622.91;5084177;27;50269;-70
2022/08/30 08:47:12;;;;;;;;;5.50;5.50;;;;;22.34;50.00;101610.47;5086057;27;49743;-68
2022/08/30 08:49:41;;;;;;;;;8.50;8.50;;;;;22.40;49.80;101616.63;5092005;27;51124;-69
2022/08/30 08:55:01;;;;;;;;;10.75;9.00;;;;;22.86;50.28;101634.69;5080370;27;49996;-73
2022/08/30 08:57:32;;;;;;;;;8.25;8.25;;;;;23.00;48.82;101639.81;5096357;27;50005;-68
2022/08/30 08:59:58;;;;;;;;;8.25;8.25;;;;;23.01;48.68;101621.06;5088014;27;51658;-68
2022/08/30 09:02:27;;;;;;;;;9.25;8.50;;;;;23.26;48.65;101634.91;5097571;27;49367;-69
2022/08/30 09:04:56;;;;;;;;;7.25;7.25;;;;;23.38;48.94;101626.66;5093984;27;49536;-69
2022/08/30 09:07:29;;;;;;;;;10.00;8.75;;;;;23.60;48.48;101645.03;5089790;27;49105;-69
2022/08/30 09:09:56;;;;;;;;;12.00;9.25;;;;;23.56;47.88;101624.53;5103873;27;50144;-70
2022/08/30 09:12:22;;;;;;;;;7.50;7.00;;;;;23.70;48.03;101627.84;5092552;27;49641;-72
2022/08/30 09:14:53;;;;;;;;;6.75;6.00;;;;;24.07;47.98;101635.16;5087103;27;49973;-72
2022/08/30 09:17:21;;;;;;;;;8.00;7.75;;;;;23.97;47.41;101621.94;5089736;27;49290;-73
2022/08/30 09:19:53;;;;;;;;;9.00;8.00;;;;;24.15;47.16;101634.06;5101690;27;49636;-73
2022/08/30 09:22:41;;;;;;;;;6.50;5.75;;;;;24.37;46.95;101636.31;5088919;27;49825;-72
2022/08/30 09:25:21;;;;;;;;;9.00;9.00;;;;;24.26;46.73;101590.91;5075911;27;49945;-72
2022/08/30 09:27:48;;;;;;;;;8.00;8.00;;;;;24.46;46.78;101599.41;5073359;27;49743;-73
2022/08/30 09:30:29;;;;;;;;;8.50;7.25;;;;;24.21;45.89;101582.94;5081541;27;50805;-76
2022/08/30 09:33:16;;;;;;;;;11.25;9.75;;;;;24.54;46.68;101635.00;5090641;27;49850;-76
2022/08/30 09:35:53;;;;;;;;;7.75;7.50;;;;;23.94;46.04;101520.09;5081958;27;49861;-76
2022/08/30 09:38:32;;;;;;;;;10.00;8.25;;;;;24.67;45.66;101649.03;5083312;27;49872;-76
2022/08/30 09:41:03;;;;;;;;;8.00;8.00;;;;;24.57;45.49;101619.75;5077598;27;50257;-75
2022/08/30 09:43:33;;;;;;;;;10.00;7.25;;;;;24.73;45.12;101618.47;5083312;27;50077;-75
2022/08/30 09:45:58;;;;;;;;;8.00;8.00;;;;;24.93;45.19;101637.66;5080953;27;49935;-76
2022/08/30 09:48:39;;;;;;;;;6.25;6.25;;;;;24.44;45.23;101538.66;5077259;27;49778;-77
2022/08/30 09:51:12;;;;;;;;;8.50;8.00;;;;;25.20;45.31;101636.13;5074902;27;50539;-77
2022/08/30 09:53:46;;;;;;;;;9.75;6.75;;;;;25.37;45.07;101644.59;5078000;27;49958;-76
2022/08/30 09:56:44;;;;;;;;;8.75;6.50;;;;;25.51;45.51;101644.25;5087842;27;49745;-77
2022/08/30 09:59:15;;;;;;;;;9.00;9.00;;;;;25.60;43.78;101651.19;5070591;27;50047;-76
2022/08/30 10:01:58;;;;;;;;;9.00;8.75;;;;;25.44;45.17;101629.19;5086434;27;51545;-73
2022/08/30 10:04:46;;;;;;;;;6.25;6.25;;;;;25.58;44.25;101618.97;5099171;27;49524;-69
2022/08/30 10:07:21;;;;;;;;;5.75;5.75;;;;;25.90;44.12;101642.28;5105674;27;49407;-70
2022/08/30 10:10:12;;;;;;;;;11.50;10.00;;;;;25.94;43.45;101632.28;5099871;27;50218;-69
2022/08/30 10:12:59;;;;;;;;;7.25;7.25;;;;;25.91;43.48;101653.91;5090056;27;49593;-69
2022/08/30 10:15:43;;;;;;;;;9.50;8.50;;;;;25.83;43.56;101658.63;5090090;27;49603;-69
2022/08/30 10:18:19;;;;;;;;;7.00;7.00;;;;;25.83;43.36;101640.69;5103693;27;49376;-69
2022/08/30 10:21:11;;;;;;;;;7.50;7.50;;;;;26.10;43.18;101648.88;5100935;27;49514;-69
2022/08/30 10:24:10;;;;;;;;;8.25;8.25;;;;;26.12;43.32;101621.00;5103781;27;49463;-77
2022/08/30 10:26:47;;;;;;;;;9.25;8.00;;;;;26.17;42.86;101635.19;5099369;27;49641;-76
2022/08/30 10:29:39;;;;;;;;;9.50;8.75;;;;;26.01;42.87;101572.00;5100623;27;49528;-77
2022/08/30 10:32:27;;;;;;;;;6.25;6.25;;;;;26.44;42.65;101648.75;5083679;27;50028;-75
2022/08/30 10:35:27;;;;;;;;;9.50;8.75;;;;;26.42;41.42;101611.13;5086980;27;49877;-74
2022/08/30 10:38:30;;;;;;;;;7.50;7.00;;;;;25.80;41.34;101508.97;5069419;27;49710;-76
2022/08/30 10:41:23;;;;;;;;;8.00;8.00;;;;;26.57;41.68;101642.06;5097679;27;49662;-76
2022/08/30 10:44:20;;;;;;;;;6.25;6.25;;;;;26.67;42.33;101645.34;5097493;27;49796;-77
2022/08/30 10:47:05;;;;;;;;;7.50;7.50;;;;;26.87;42.05;101642.00;5090071;27;50513;-77
2022/08/30 10:49:39;;;;;;;;;8.00;7.75;;;;;26.86;41.59;101605.22;5108217;27;50199;-77
2022/08/30 10:52:19;;;;;;;;;12.00;7.50;;;;;27.16;40.85;101641.94;5100665;27;49611;-76
2022/08/30 10:55:06;;;;;;;;;7.25;6.25;;;;;27.17;41.50;101640.13;5096725;27;49797;-76
2022/08/30 10:57:31;;;;;;;;;7.25;7.25;;;;;27.23;41.24;101631.84;5104000;27;51523;-76
2022/08/30 11:00:09;;;;;;;;;6.75;6.75;;;;;27.30;40.91;101642.34;5108588;27;49623;-76
2022/08/30 11:03:02;;;;;;;;;9.25;9.00;;;;;27.37;40.52;101641.19;5101232;27;49903;-75
2022/08/30 11:05:40;;;;;;;;;9.25;7.75;;;;;27.42;40.23;101640.16;5099315;27;49809;-77
2022/08/30 11:08:06;;;;;;;;;11.75;9.25;;;;;27.45;39.75;101637.34;5101547;27;49722;-75
2022/08/30 11:10:49;;;;;;;;;7.75;6.75;;;;;27.25;39.96;101609.28;5108476;27;49502;-75
2022/08/30 11:13:19;;;;;;;;;9.25;8.50;;;;;27.37;39.68;101635.81;5103752;27;49488;-76
2022/08/30 11:15:58;;;;;;;;;8.50;8.50;;;;;27.04;40.21;101583.09;5102416;27;49480;-76
2022/08/30 11:18:27;;;;;;;;;10.00;8.00;;;;;27.33;40.45;101661.13;5105747;27;51488;-75
2022/08/30 11:21:15;;;;;;;;;7.00;7.00;;;;;27.25;40.49;101636.25;5104940;27;49390;-77
2022/08/30 11:23:40;;;;;;;;;8.75;8.75;;;;;27.35;40.72;101640.38;5104720;27;49593;-77
2022/08/30 11:26:09;;;;;;;;;10.25;7.25;;;;;27.10;40.36;101589.13;5106077;27;49529;-77
2022/08/30 11:28:35;;;;;;;;;8.00;8.00;;;;;27.55;40.27;101636.97;5100260;27;51866;-77
2022/08/30 11:31:10;;;;;;;;;7.50;5.75;;;;;27.65;40.55;101638.44;5093968;27;49842;-77
2022/08/30 11:33:52;;;;;;;;;11.25;10.25;;;;;27.80;40.10;101636.13;5088802;27;50163;-75
2022/08/30 11:36:37;;;;;;;;;7.50;7.50;;;;;27.88;40.70;101664.56;5085199;27;49746;-75